Chrisanthi — SX7108 — position and weather

sailwx.info

Track history (hours):
 
Tides and Currents Weather Stations Pressure Air Temp Water Temp Dewpoint Dewpoint Depression Visibility Wind Speed Wind Dir Waves Ship Positions

Chrisanthi

Last reported at 2018-Apr-14 22:13 UTC. Time now 2018-Apr-21 23:20 UTC.
Position N 37°10' E 025°48'.

Length 56 m; draft 3.9 m.

Type: Ship (hazmat cat A). MMSI: 237009100.

Date/timePositionNaut miles runAvg speedWind from/ knotsBaromVisibWave heightAir tempDewpointWater temp
2018-Apr-14 22:13N 37°10' E 025°48'2 9.5
2018-Apr-14 22:00N 37°11' E 025°45'14 9.2
2018-Apr-14 20:33N 37°12' E 025°28'110.0
2018-Apr-14 20:28N 37°12' E 025°27'5 9.8
2018-Apr-14 20:00N 37°09' E 025°23'3 6.1
2018-Apr-14 19:30N 37°06' E 025°22'0 0.0
2018-Apr-14 19:01N 37°06' E 025°22'0 0.0
2018-Apr-14 18:30N 37°06' E 025°22'0 0.0
2018-Apr-14 18:01N 37°06' E 025°22'0 0.0
2018-Apr-14 17:31N 37°06' E 025°22'0 0.0
2018-Apr-14 17:00N 37°06' E 025°22'0 0.0
2018-Apr-14 16:31N 37°06' E 025°22'0 0.0
2018-Apr-14 16:00N 37°06' E 025°22'1 1.3
2018-Apr-14 15:30N 37°07' E 025°21'3 6.8
2018-Apr-14 15:01N 37°09' E 025°19'4 8.9
2018-Apr-14 14:31N 37°10' E 025°14'7 1.4
2018-Apr-14 09:37N 37°06' E 025°06'1 9.3
2018-Apr-14 09:31N 37°06' E 025°05'  
2018-Apr-07 21:37N 37°11' E 025°48'1 9.9
2018-Apr-07 21:30N 37°11' E 025°47'5 9.8
2018-Apr-07 21:00N 37°12' E 025°41'9 9.8
2018-Apr-07 20:06N 37°13' E 025°30'1 9.7
2018-Apr-07 20:00N 37°14' E 025°29'5 9.7
2018-Apr-07 19:31N 37°15' E 025°23'5 9.9
2018-Apr-07 19:01N 37°16' E 025°17'510.0
2018-Apr-07 18:30N 37°17' E 025°11'6 9.9
2018-Apr-07 17:54N 37°19' E 025°03'4 9.9
2018-Apr-07 17:30N 37°20' E 024°59'5 9.9
2018-Apr-07 17:00N 37°21' E 024°53'5 9.9
2018-Apr-07 16:30N 37°23' E 024°47'52 9.3
2018-Apr-07 10:56N 37°36' E 023°44'4 9.8
2018-Apr-07 10:28N 37°36' E 023°38'5 9.8
2018-Apr-07 10:00N 37°38' E 023°33'5 9.9
2018-Apr-07 09:29N 37°39' E 023°26'510.0
2018-Apr-07 09:00N 37°40' E 023°21'5 9.3
2018-Apr-07 08:30N 37°43' E 023°16'510.1
2018-Apr-07 08:00N 37°47' E 023°13'510.1
2018-Apr-07 07:30N 37°52' E 023°10'5 9.4
2018-Apr-07 07:00N 37°55' E 023°05'0 0.2
2018-Apr-07 06:30N 37°55' E 023°05'0 0.0
2018-Apr-07 06:00N 37°55' E 023°05'0 0.0
2018-Apr-07 05:30N 37°55' E 023°05'0 0.0
2018-Apr-07 05:00N 37°55' E 023°05'0 0.0
2018-Apr-07 04:29N 37°55' E 023°05'0 0.0
2018-Apr-07 04:00N 37°55' E 023°05'0 0.0
2018-Apr-07 03:30N 37°55' E 023°05'0 0.0
2018-Apr-07 03:00N 37°55' E 023°05'0 0.0
2018-Apr-07 02:30N 37°55' E 023°05'0 0.0
2018-Apr-07 02:00N 37°55' E 023°05'0 0.0
2018-Apr-07 01:30N 37°55' E 023°05'0 0.0
2018-Apr-07 01:01N 37°55' E 023°05'0 0.0
2018-Apr-07 00:31N 37°55' E 023°05'0 0.0
2018-Apr-07 00:00N 37°55' E 023°05'0 0.0
2018-Apr-06 23:31N 37°55' E 023°05'0 0.0
2018-Apr-06 23:00N 37°55' E 023°05'0 0.0
2018-Apr-06 22:30N 37°55' E 023°05'0 0.0
2018-Apr-06 22:01N 37°55' E 023°05'1 1.0
2018-Apr-06 21:30N 37°55' E 023°06'0 0.7
2018-Apr-06 21:00N 37°55' E 023°06'0 0.1
2018-Apr-06 20:30N 37°55' E 023°06'0 0.0
2018-Apr-06 20:00N 37°55' E 023°06'2 3.6
2018-Apr-06 19:30N 37°53' E 023°08'510.4
2018-Apr-06 19:01N 37°49' E 023°12'510.7
2018-Apr-06 18:30N 37°45' E 023°15'510.5
2018-Apr-06 17:59N 37°40' E 023°19'510.6
2018-Apr-06 17:28N 37°39' E 023°26'510.6
2018-Apr-06 17:00N 37°38' E 023°32'510.5
2018-Apr-06 16:30N 37°35' E 023°38'6710.6
2018-Apr-06 10:15N 37°08' E 024°54'210.3
2018-Apr-06 10:00N 37°07' E 024°57'510.2
2018-Apr-06 09:30N 37°06' E 025°03'3 0.6
2018-Apr-06 03:47N 37°06' E 025°07'410.2
2018-Apr-06 03:23N 37°09' E 025°11'410.2
2018-Apr-06 03:00N 37°10' E 025°15'5 9.5
2018-Apr-06 02:30N 37°08' E 025°20'2 4.2
2018-Apr-06 02:00N 37°06' E 025°22'0 0.0
2018-Apr-06 01:30N 37°06' E 025°22'0 0.0
2018-Apr-06 01:00N 37°06' E 025°22'0 0.0
2018-Apr-06 00:31N 37°06' E 025°22'0 0.1
2018-Apr-06 00:01N 37°06' E 025°22'0 0.0
2018-Apr-05 23:30N 37°06' E 025°22'0 0.0
2018-Apr-05 23:00N 37°06' E 025°22'0 0.0
2018-Apr-05 22:30N 37°06' E 025°22'0 0.0
2018-Apr-05 22:00N 37°06' E 025°22'0 0.0
2018-Apr-05 21:31N 37°06' E 025°22'1 1.8
2018-Apr-05 21:00N 37°06' E 025°21'4 7.9
2018-Apr-05 20:31N 37°03' E 025°18'  
Track history (hours):
 
Tides and Currents Weather Stations Pressure Air Temp Water Temp Dewpoint Dewpoint Depression Visibility Wind Speed Wind Dir Waves Ship Positions

Chrisanthi

Last reported at 2018-Apr-14 22:13 UTC. Time now 2018-Apr-21 23:20 UTC.
Position N 37°10' E 025°48'.

Length 56 m; draft 3.9 m.

Type: Ship (hazmat cat A). MMSI: 237009100.

Date/timePositionNaut miles runAvg speedWind from/ knotsBaromVisibWave heightAir tempDewpointWater temp
2018-Apr-14 22:13N 37°10' E 025°48'2 9.5
2018-Apr-14 22:00N 37°11' E 025°45'14 9.2
2018-Apr-14 20:33N 37°12' E 025°28'110.0
2018-Apr-14 20:28N 37°12' E 025°27'5 9.8
2018-Apr-14 20:00N 37°09' E 025°23'3 6.1
2018-Apr-14 19:30N 37°06' E 025°22'0 0.0
2018-Apr-14 19:01N 37°06' E 025°22'0 0.0
2018-Apr-14 18:30N 37°06' E 025°22'0 0.0
2018-Apr-14 18:01N 37°06' E 025°22'0 0.0
2018-Apr-14 17:31N 37°06' E 025°22'0 0.0
2018-Apr-14 17:00N 37°06' E 025°22'0 0.0
2018-Apr-14 16:31N 37°06' E 025°22'0 0.0
2018-Apr-14 16:00N 37°06' E 025°22'1 1.3
2018-Apr-14 15:30N 37°07' E 025°21'3 6.8
2018-Apr-14 15:01N 37°09' E 025°19'4 8.9
2018-Apr-14 14:31N 37°10' E 025°14'7 1.4
2018-Apr-14 09:37N 37°06' E 025°06'1 9.3
2018-Apr-14 09:31N 37°06' E 025°05'  
2018-Apr-07 21:37N 37°11' E 025°48'1 9.9
2018-Apr-07 21:30N 37°11' E 025°47'5 9.8
2018-Apr-07 21:00N 37°12' E 025°41'9 9.8
2018-Apr-07 20:06N 37°13' E 025°30'1 9.7
2018-Apr-07 20:00N 37°14' E 025°29'5 9.7
2018-Apr-07 19:31N 37°15' E 025°23'5 9.9
2018-Apr-07 19:01N 37°16' E 025°17'510.0
2018-Apr-07 18:30N 37°17' E 025°11'6 9.9
2018-Apr-07 17:54N 37°19' E 025°03'4 9.9
2018-Apr-07 17:30N 37°20' E 024°59'5 9.9
2018-Apr-07 17:00N 37°21' E 024°53'5 9.9
2018-Apr-07 16:30N 37°23' E 024°47'52 9.3
2018-Apr-07 10:56N 37°36' E 023°44'4 9.8
2018-Apr-07 10:28N 37°36' E 023°38'5 9.8
2018-Apr-07 10:00N 37°38' E 023°33'5 9.9
2018-Apr-07 09:29N 37°39' E 023°26'510.0
2018-Apr-07 09:00N 37°40' E 023°21'5 9.3
2018-Apr-07 08:30N 37°43' E 023°16'510.1
2018-Apr-07 08:00N 37°47' E 023°13'510.1
2018-Apr-07 07:30N 37°52' E 023°10'5 9.4
2018-Apr-07 07:00N 37°55' E 023°05'0 0.2
2018-Apr-07 06:30N 37°55' E 023°05'0 0.0
2018-Apr-07 06:00N 37°55' E 023°05'0 0.0
2018-Apr-07 05:30N 37°55' E 023°05'0 0.0
2018-Apr-07 05:00N 37°55' E 023°05'0 0.0
2018-Apr-07 04:29N 37°55' E 023°05'0 0.0
2018-Apr-07 04:00N 37°55' E 023°05'0 0.0
2018-Apr-07 03:30N 37°55' E 023°05'0 0.0
2018-Apr-07 03:00N 37°55' E 023°05'0 0.0
2018-Apr-07 02:30N 37°55' E 023°05'0 0.0
2018-Apr-07 02:00N 37°55' E 023°05'0 0.0
2018-Apr-07 01:30N 37°55' E 023°05'0 0.0
2018-Apr-07 01:01N 37°55' E 023°05'0 0.0
2018-Apr-07 00:31N 37°55' E 023°05'0 0.0
2018-Apr-07 00:00N 37°55' E 023°05'0 0.0
2018-Apr-06 23:31N 37°55' E 023°05'0 0.0
2018-Apr-06 23:00N 37°55' E 023°05'0 0.0
2018-Apr-06 22:30N 37°55' E 023°05'0 0.0
2018-Apr-06 22:01N 37°55' E 023°05'1 1.0
2018-Apr-06 21:30N 37°55' E 023°06'0 0.7
2018-Apr-06 21:00N 37°55' E 023°06'0 0.1
2018-Apr-06 20:30N 37°55' E 023°06'0 0.0
2018-Apr-06 20:00N 37°55' E 023°06'2 3.6
2018-Apr-06 19:30N 37°53' E 023°08'510.4
2018-Apr-06 19:01N 37°49' E 023°12'510.7
2018-Apr-06 18:30N 37°45' E 023°15'510.5
2018-Apr-06 17:59N 37°40' E 023°19'510.6
2018-Apr-06 17:28N 37°39' E 023°26'510.6
2018-Apr-06 17:00N 37°38' E 023°32'510.5
2018-Apr-06 16:30N 37°35' E 023°38'6710.6
2018-Apr-06 10:15N 37°08' E 024°54'210.3
2018-Apr-06 10:00N 37°07' E 024°57'510.2
2018-Apr-06 09:30N 37°06' E 025°03'3 0.6
2018-Apr-06 03:47N 37°06' E 025°07'410.2
2018-Apr-06 03:23N 37°09' E 025°11'410.2
2018-Apr-06 03:00N 37°10' E 025°15'5 9.5
2018-Apr-06 02:30N 37°08' E 025°20'2 4.2
2018-Apr-06 02:00N 37°06' E 025°22'0 0.0
2018-Apr-06 01:30N 37°06' E 025°22'0 0.0
2018-Apr-06 01:00N 37°06' E 025°22'0 0.0
2018-Apr-06 00:31N 37°06' E 025°22'0 0.1
2018-Apr-06 00:01N 37°06' E 025°22'0 0.0
2018-Apr-05 23:30N 37°06' E 025°22'0 0.0
2018-Apr-05 23:00N 37°06' E 025°22'0 0.0
2018-Apr-05 22:30N 37°06' E 025°22'0 0.0
2018-Apr-05 22:00N 37°06' E 025°22'0 0.0
2018-Apr-05 21:31N 37°06' E 025°22'1 1.8
2018-Apr-05 21:00N 37°06' E 025°21'4 7.9
2018-Apr-05 20:31N 37°03' E 025°18'  

Dump ship's entire track history